sensor_id;sensor_type;location;lat;lon;timestamp;P1;durP1;ratioP1;P2;durP2;ratioP2
50066;SDS011;35952;52.524;13.340;2023-03-03T00:02:12;27.70;;;15.23;;
50066;SDS011;35952;52.524;13.340;2023-03-03T00:04:37;22.80;;;13.07;;
50066;SDS011;35952;52.524;13.340;2023-03-03T00:07:04;23.75;;;15.05;;
50066;SDS011;35952;52.524;13.340;2023-03-03T00:09:29;28.73;;;14.93;;
50066;SDS011;35952;52.524;13.340;2023-03-03T00:11:55;23.90;;;13.80;;
50066;SDS011;35952;52.524;13.340;2023-03-03T00:14:42;22.63;;;13.10;;
50066;SDS011;35952;52.524;13.340;2023-03-03T00:17:12;23.87;;;15.40;;
50066;SDS011;35952;52.524;13.340;2023-03-03T00:19:44;27.10;;;15.57;;
50066;SDS011;35952;52.524;13.340;2023-03-03T00:27:53;24.85;;;12.90;;
50066;SDS011;35952;52.524;13.340;2023-03-03T00:30:21;20.23;;;13.90;;
50066;SDS011;35952;52.524;13.340;2023-03-03T00:32:49;23.48;;;14.38;;
50066;SDS011;35952;52.524;13.340;2023-03-03T00:35:37;22.20;;;13.93;;
50066;SDS011;35952;52.524;13.340;2023-03-03T00:38:11;22.83;;;14.05;;
50066;SDS011;35952;52.524;13.340;2023-03-03T00:40:41;19.40;;;12.20;;
50066;SDS011;35952;52.524;13.340;2023-03-03T00:43:19;30.87;;;15.00;;
50066;SDS011;35952;52.524;13.340;2023-03-03T00:45:51;22.58;;;12.98;;
50066;SDS011;35952;52.524;13.340;2023-03-03T00:48:27;28.48;;;15.90;;
50066;SDS011;35952;52.524;13.340;2023-03-03T00:50:59;21.98;;;14.10;;
50066;SDS011;35952;52.524;13.340;2023-03-03T00:53:26;26.35;;;15.23;;
50066;SDS011;35952;52.524;13.340;2023-03-03T00:55:53;24.08;;;15.07;;
50066;SDS011;35952;52.524;13.340;2023-03-03T00:58:19;20.48;;;13.50;;
50066;SDS011;35952;52.524;13.340;2023-03-03T01:00:49;23.58;;;14.75;;
50066;SDS011;35952;52.524;13.340;2023-03-03T01:03:21;24.42;;;14.10;;
50066;SDS011;35952;52.524;13.340;2023-03-03T01:05:48;24.83;;;14.90;;
50066;SDS011;35952;52.524;13.340;2023-03-03T01:08:15;22.33;;;13.30;;
50066;SDS011;35952;52.524;13.340;2023-03-03T01:10:42;20.07;;;13.43;;
50066;SDS011;35952;52.524;13.340;2023-03-03T01:13:11;24.23;;;13.95;;
50066;SDS011;35952;52.524;13.340;2023-03-03T01:15:38;20.63;;;12.80;;
50066;SDS011;35952;52.524;13.340;2023-03-03T01:18:04;27.73;;;15.43;;
50066;SDS011;35952;52.524;13.340;2023-03-03T01:20:30;27.83;;;13.82;;
50066;SDS011;35952;52.524;13.340;2023-03-03T01:22:55;27.97;;;15.47;;
50066;SDS011;35952;52.524;13.340;2023-03-03T01:25:21;21.77;;;13.33;;
50066;SDS011;35952;52.524;13.340;2023-03-03T01:27:46;27.50;;;15.63;;
50066;SDS011;35952;52.524;13.340;2023-03-03T01:30:12;28.17;;;14.03;;
50066;SDS011;35952;52.524;13.340;2023-03-03T01:32:38;24.67;;;13.43;;
50066;SDS011;35952;52.524;13.340;2023-03-03T01:35:04;19.77;;;13.40;;
50066;SDS011;35952;52.524;13.340;2023-03-03T01:37:30;23.13;;;14.30;;
50066;SDS011;35952;52.524;13.340;2023-03-03T01:39:55;23.60;;;14.13;;
50066;SDS011;35952;52.524;13.340;2023-03-03T01:42:21;28.07;;;16.37;;
50066;SDS011;35952;52.524;13.340;2023-03-03T01:44:46;23.17;;;14.53;;
50066;SDS011;35952;52.524;13.340;2023-03-03T01:47:16;22.40;;;13.02;;
50066;SDS011;35952;52.524;13.340;2023-03-03T01:49:48;25.58;;;12.45;;
50066;SDS011;35952;52.524;13.340;2023-03-03T01:52:24;21.95;;;11.77;;
50066;SDS011;35952;52.524;13.340;2023-03-03T01:54:55;24.63;;;13.85;;
50066;SDS011;35952;52.524;13.340;2023-03-03T01:57:26;24.65;;;15.27;;
50066;SDS011;35952;52.524;13.340;2023-03-03T01:59:56;24.98;;;15.32;;
50066;SDS011;35952;52.524;13.340;2023-03-03T02:02:24;24.63;;;14.30;;
50066;SDS011;35952;52.524;13.340;2023-03-03T02:04:51;24.67;;;14.05;;
50066;SDS011;35952;52.524;13.340;2023-03-03T02:07:17;25.47;;;14.63;;
50066;SDS011;35952;52.524;13.340;2023-03-03T02:15:14;25.00;;;15.25;;
50066;SDS011;35952;52.524;13.340;2023-03-03T02:18:09;22.27;;;13.55;;
50066;SDS011;35952;52.524;13.340;2023-03-03T02:20:50;25.45;;;13.88;;
50066;SDS011;35952;52.524;13.340;2023-03-03T02:26:07;24.95;;;15.35;;
50066;SDS011;35952;52.524;13.340;2023-03-03T02:28:36;25.50;;;15.20;;
50066;SDS011;35952;52.524;13.340;2023-03-03T02:31:04;23.10;;;13.80;;
50066;SDS011;35952;52.524;13.340;2023-03-03T02:33:31;24.40;;;14.90;;
50066;SDS011;35952;52.524;13.340;2023-03-03T02:35:57;25.67;;;14.40;;
50066;SDS011;35952;52.524;13.340;2023-03-03T02:38:26;23.27;;;13.70;;
50066;SDS011;35952;52.524;13.340;2023-03-03T02:43:42;22.60;;;13.52;;
50066;SDS011;35952;52.524;13.340;2023-03-03T02:46:22;22.15;;;14.23;;
50066;SDS011;35952;52.524;13.340;2023-03-03T02:48:48;27.57;;;16.07;;
50066;SDS011;35952;52.524;13.340;2023-03-03T02:51:14;27.57;;;15.13;;
50066;SDS011;35952;52.524;13.340;2023-03-03T02:53:40;27.50;;;14.40;;
50066;SDS011;35952;52.524;13.340;2023-03-03T02:56:05;28.10;;;15.80;;
50066;SDS011;35952;52.524;13.340;2023-03-03T02:58:33;23.33;;;14.43;;
50066;SDS011;35952;52.524;13.340;2023-03-03T03:01:02;27.77;;;15.55;;
50066;SDS011;35952;52.524;13.340;2023-03-03T03:03:28;26.35;;;15.05;;
50066;SDS011;35952;52.524;13.340;2023-03-03T03:05:54;26.57;;;15.70;;
50066;SDS011;35952;52.524;13.340;2023-03-03T03:08:20;27.77;;;15.40;;
50066;SDS011;35952;52.524;13.340;2023-03-03T03:10:45;24.40;;;14.70;;
50066;SDS011;35952;52.524;13.340;2023-03-03T03:13:11;25.83;;;14.50;;
50066;SDS011;35952;52.524;13.340;2023-03-03T03:15:37;25.10;;;14.00;;
50066;SDS011;35952;52.524;13.340;2023-03-03T03:18:03;29.80;;;14.67;;
50066;SDS011;35952;52.524;13.340;2023-03-03T03:20:28;29.20;;;15.67;;
50066;SDS011;35952;52.524;13.340;2023-03-03T03:22:54;27.27;;;14.70;;
50066;SDS011;35952;52.524;13.340;2023-03-03T03:25:20;26.23;;;13.00;;
50066;SDS011;35952;52.524;13.340;2023-03-03T03:27:45;31.53;;;15.13;;
50066;SDS011;35952;52.524;13.340;2023-03-03T03:30:11;26.87;;;14.00;;
50066;SDS011;35952;52.524;13.340;2023-03-03T03:32:37;28.90;;;15.25;;
50066;SDS011;35952;52.524;13.340;2023-03-03T03:35:02;28.13;;;15.83;;
50066;SDS011;35952;52.524;13.340;2023-03-03T03:37:28;26.77;;;15.03;;
50066;SDS011;35952;52.524;13.340;2023-03-03T03:39:54;25.47;;;14.33;;
50066;SDS011;35952;52.524;13.340;2023-03-03T03:42:20;24.38;;;13.88;;
50066;SDS011;35952;52.524;13.340;2023-03-03T03:44:45;24.40;;;14.50;;
50066;SDS011;35952;52.524;13.340;2023-03-03T03:47:11;22.33;;;13.47;;
50066;SDS011;35952;52.524;13.340;2023-03-03T03:49:36;24.33;;;12.97;;
50066;SDS011;35952;52.524;13.340;2023-03-03T03:52:02;25.13;;;14.73;;
50066;SDS011;35952;52.524;13.340;2023-03-03T03:54:28;28.97;;;17.93;;
50066;SDS011;35952;52.524;13.340;2023-03-03T03:56:53;25.50;;;15.63;;
50066;SDS011;35952;52.524;13.340;2023-03-03T03:59:19;29.00;;;15.60;;
50066;SDS011;35952;52.524;13.340;2023-03-03T04:01:45;30.08;;;15.00;;
50066;SDS011;35952;52.524;13.340;2023-03-03T04:04:12;31.45;;;18.63;;
50066;SDS011;35952;52.524;13.340;2023-03-03T04:06:37;28.70;;;16.23;;
50066;SDS011;35952;52.524;13.340;2023-03-03T04:09:03;21.90;;;13.33;;
50066;SDS011;35952;52.524;13.340;2023-03-03T04:11:29;26.70;;;14.00;;
50066;SDS011;35952;52.524;13.340;2023-03-03T04:13:54;25.03;;;14.37;;
50066;SDS011;35952;52.524;13.340;2023-03-03T04:16:20;27.07;;;15.20;;
50066;SDS011;35952;52.524;13.340;2023-03-03T04:18:46;22.07;;;11.90;;
50066;SDS011;35952;52.524;13.340;2023-03-03T04:21:12;21.00;;;13.03;;
50066;SDS011;35952;52.524;13.340;2023-03-03T04:23:39;23.55;;;14.48;;
50066;SDS011;35952;52.524;13.340;2023-03-03T04:26:05;20.70;;;11.50;;
50066;SDS011;35952;52.524;13.340;2023-03-03T04:28:31;23.45;;;12.68;;
50066;SDS011;35952;52.524;13.340;2023-03-03T04:30:57;26.80;;;13.80;;
50066;SDS011;35952;52.524;13.340;2023-03-03T04:33:22;28.93;;;15.63;;
50066;SDS011;35952;52.524;13.340;2023-03-03T04:35:48;28.03;;;16.00;;
50066;SDS011;35952;52.524;13.340;2023-03-03T04:38:15;27.42;;;14.52;;
50066;SDS011;35952;52.524;13.340;2023-03-03T04:40:40;29.40;;;15.03;;
50066;SDS011;35952;52.524;13.340;2023-03-03T04:43:06;30.70;;;16.10;;
50066;SDS011;35952;52.524;13.340;2023-03-03T04:45:32;30.55;;;16.17;;
50066;SDS011;35952;52.524;13.340;2023-03-03T04:47:58;28.00;;;16.47;;
50066;SDS011;35952;52.524;13.340;2023-03-03T04:50:23;32.20;;;15.73;;
50066;SDS011;35952;52.524;13.340;2023-03-03T04:52:49;34.67;;;17.47;;
50066;SDS011;35952;52.524;13.340;2023-03-03T04:55:15;31.80;;;15.97;;
50066;SDS011;35952;52.524;13.340;2023-03-03T04:57:40;32.67;;;16.90;;
50066;SDS011;35952;52.524;13.340;2023-03-03T05:00:07;29.95;;;16.15;;
50066;SDS011;35952;52.524;13.340;2023-03-03T05:02:33;38.78;;;17.30;;
50066;SDS011;35952;52.524;13.340;2023-03-03T05:04:59;30.60;;;17.63;;
50066;SDS011;35952;52.524;13.340;2023-03-03T05:07:24;24.23;;;14.70;;
50066;SDS011;35952;52.524;13.340;2023-03-03T05:09:50;32.23;;;16.00;;
50066;SDS011;35952;52.524;13.340;2023-03-03T05:12:16;35.78;;;18.50;;
50066;SDS011;35952;52.524;13.340;2023-03-03T05:14:42;31.57;;;17.50;;
50066;SDS011;35952;52.524;13.340;2023-03-03T05:17:08;37.37;;;18.90;;
50066;SDS011;35952;52.524;13.340;2023-03-03T05:19:33;36.30;;;19.20;;
50066;SDS011;35952;52.524;13.340;2023-03-03T05:21:59;41.10;;;22.73;;
50066;SDS011;35952;52.524;13.340;2023-03-03T05:24:25;36.38;;;19.98;;
50066;SDS011;35952;52.524;13.340;2023-03-03T05:26:51;46.07;;;21.13;;
50066;SDS011;35952;52.524;13.340;2023-03-03T05:29:17;41.53;;;18.90;;
50066;SDS011;35952;52.524;13.340;2023-03-03T05:31:43;31.40;;;17.57;;
50066;SDS011;35952;52.524;13.340;2023-03-03T05:34:08;34.13;;;18.00;;
50066;SDS011;35952;52.524;13.340;2023-03-03T05:36:34;38.67;;;18.27;;
50066;SDS011;35952;52.524;13.340;2023-03-03T05:39:00;34.13;;;18.37;;
50066;SDS011;35952;52.524;13.340;2023-03-03T05:41:25;34.80;;;17.27;;
50066;SDS011;35952;52.524;13.340;2023-03-03T05:43:51;37.60;;;18.53;;
50066;SDS011;35952;52.524;13.340;2023-03-03T05:46:16;39.93;;;18.80;;
50066;SDS011;35952;52.524;13.340;2023-03-03T05:48:42;32.93;;;17.33;;
50066;SDS011;35952;52.524;13.340;2023-03-03T05:51:08;37.70;;;16.80;;
50066;SDS011;35952;52.524;13.340;2023-03-03T05:53:33;27.03;;;15.40;;
50066;SDS011;35952;52.524;13.340;2023-03-03T05:55:59;24.20;;;14.50;;
50066;SDS011;35952;52.524;13.340;2023-03-03T05:58:24;24.67;;;14.70;;
50066;SDS011;35952;52.524;13.340;2023-03-03T06:00:50;24.47;;;13.03;;
50066;SDS011;35952;52.524;13.340;2023-03-03T06:03:15;24.37;;;12.43;;
50066;SDS011;35952;52.524;13.340;2023-03-03T06:05:41;34.80;;;13.63;;
50066;SDS011;35952;52.524;13.340;2023-03-03T06:08:07;23.13;;;12.20;;
50066;SDS011;35952;52.524;13.340;2023-03-03T06:10:33;23.67;;;13.03;;
50066;SDS011;35952;52.524;13.340;2023-03-03T06:12:59;28.10;;;13.60;;
50066;SDS011;35952;52.524;13.340;2023-03-03T06:15:24;26.90;;;14.03;;
50066;SDS011;35952;52.524;13.340;2023-03-03T06:17:50;26.93;;;14.47;;
50066;SDS011;35952;52.524;13.340;2023-03-03T06:20:16;29.53;;;13.80;;
50066;SDS011;35952;52.524;13.340;2023-03-03T06:22:41;22.83;;;10.97;;
50066;SDS011;35952;52.524;13.340;2023-03-03T06:25:07;21.10;;;10.70;;
50066;SDS011;35952;52.524;13.340;2023-03-03T06:27:33;18.88;;;11.65;;
50066;SDS011;35952;52.524;13.340;2023-03-03T06:29:59;19.67;;;11.47;;
50066;SDS011;35952;52.524;13.340;2023-03-03T06:32:25;20.70;;;10.77;;
50066;SDS011;35952;52.524;13.340;2023-03-03T06:34:50;17.80;;;11.17;;
50066;SDS011;35952;52.524;13.340;2023-03-03T06:37:16;26.23;;;12.37;;
50066;SDS011;35952;52.524;13.340;2023-03-03T06:39:41;21.80;;;11.20;;
50066;SDS011;35952;52.524;13.340;2023-03-03T06:42:07;21.60;;;11.97;;
50066;SDS011;35952;52.524;13.340;2023-03-03T06:44:33;24.15;;;12.63;;
50066;SDS011;35952;52.524;13.340;2023-03-03T06:46:59;28.30;;;13.75;;
50066;SDS011;35952;52.524;13.340;2023-03-03T06:49:25;28.13;;;14.40;;
50066;SDS011;35952;52.524;13.340;2023-03-03T06:51:51;33.43;;;15.77;;
50066;SDS011;35952;52.524;13.340;2023-03-03T06:54:18;41.20;;;17.63;;
50066;SDS011;35952;52.524;13.340;2023-03-03T06:56:52;29.73;;;15.00;;
50066;SDS011;35952;52.524;13.340;2023-03-03T06:59:22;34.40;;;16.48;;
50066;SDS011;35952;52.524;13.340;2023-03-03T07:01:54;35.10;;;16.17;;
50066;SDS011;35952;52.524;13.340;2023-03-03T07:06:57;38.42;;;17.88;;
50066;SDS011;35952;52.524;13.340;2023-03-03T07:09:29;37.65;;;18.10;;
50066;SDS011;35952;52.524;13.340;2023-03-03T07:11:56;29.87;;;15.93;;
50066;SDS011;35952;52.524;13.340;2023-03-03T07:14:27;31.02;;;14.70;;
50066;SDS011;35952;52.524;13.340;2023-03-03T07:16:57;29.08;;;14.35;;
50066;SDS011;35952;52.524;13.340;2023-03-03T07:19:28;25.67;;;13.60;;
50066;SDS011;35952;52.524;13.340;2023-03-03T07:22:00;29.60;;;13.40;;
50066;SDS011;35952;52.524;13.340;2023-03-03T07:24:37;22.25;;;13.38;;
50066;SDS011;35952;52.524;13.340;2023-03-03T07:29:48;28.00;;;13.80;;
50066;SDS011;35952;52.524;13.340;2023-03-03T07:34:50;29.38;;;13.95;;
50066;SDS011;35952;52.524;13.340;2023-03-03T07:37:36;26.65;;;13.82;;
50066;SDS011;35952;52.524;13.340;2023-03-03T07:43:12;25.02;;;12.43;;
50066;SDS011;35952;52.524;13.340;2023-03-03T07:45:44;28.70;;;14.68;;
50066;SDS011;35952;52.524;13.340;2023-03-03T07:48:18;23.20;;;13.50;;
50066;SDS011;35952;52.524;13.340;2023-03-03T07:50:50;24.55;;;13.15;;
50066;SDS011;35952;52.524;13.340;2023-03-03T07:53:26;28.30;;;12.93;;
50066;SDS011;35952;52.524;13.340;2023-03-03T07:55:58;24.60;;;12.88;;
50066;SDS011;35952;52.524;13.340;2023-03-03T07:58:35;28.02;;;14.35;;
50066;SDS011;35952;52.524;13.340;2023-03-03T08:03:47;30.00;;;15.40;;
50066;SDS011;35952;52.524;13.340;2023-03-03T08:06:28;33.90;;;15.75;;
50066;SDS011;35952;52.524;13.340;2023-03-03T08:11:34;36.40;;;16.27;;
50066;SDS011;35952;52.524;13.340;2023-03-03T08:14:12;27.73;;;14.73;;
50066;SDS011;35952;52.524;13.340;2023-03-03T08:16:43;28.40;;;14.18;;
50066;SDS011;35952;52.524;13.340;2023-03-03T08:19:08;19.37;;;11.17;;
50066;SDS011;35952;52.524;13.340;2023-03-03T08:21:38;27.50;;;14.52;;
50066;SDS011;35952;52.524;13.340;2023-03-03T08:24:04;24.33;;;12.23;;
50066;SDS011;35952;52.524;13.340;2023-03-03T08:26:30;33.20;;;14.80;;
50066;SDS011;35952;52.524;13.340;2023-03-03T08:28:55;31.63;;;15.40;;
50066;SDS011;35952;52.524;13.340;2023-03-03T08:31:21;31.10;;;13.90;;
50066;SDS011;35952;52.524;13.340;2023-03-03T08:33:46;30.30;;;16.20;;
50066;SDS011;35952;52.524;13.340;2023-03-03T08:36:14;27.20;;;14.00;;
50066;SDS011;35952;52.524;13.340;2023-03-03T08:38:42;35.92;;;16.17;;
50066;SDS011;35952;52.524;13.340;2023-03-03T08:41:08;31.43;;;14.10;;
50066;SDS011;35952;52.524;13.340;2023-03-03T08:43:34;23.50;;;13.00;;
50066;SDS011;35952;52.524;13.340;2023-03-03T08:46:01;24.33;;;14.57;;
50066;SDS011;35952;52.524;13.340;2023-03-03T08:48:32;27.70;;;15.80;;
50066;SDS011;35952;52.524;13.340;2023-03-03T08:50:58;37.63;;;18.30;;
50066;SDS011;35952;52.524;13.340;2023-03-03T08:53:24;37.83;;;18.43;;
50066;SDS011;35952;52.524;13.340;2023-03-03T08:55:49;34.90;;;18.90;;
50066;SDS011;35952;52.524;13.340;2023-03-03T08:58:16;28.03;;;16.47;;
50066;SDS011;35952;52.524;13.340;2023-03-03T09:00:43;26.80;;;14.18;;
50066;SDS011;35952;52.524;13.340;2023-03-03T09:03:09;29.75;;;15.40;;
50066;SDS011;35952;52.524;13.340;2023-03-03T09:05:36;25.77;;;13.47;;
50066;SDS011;35952;52.524;13.340;2023-03-03T09:08:03;33.13;;;15.80;;
50066;SDS011;35952;52.524;13.340;2023-03-03T09:10:31;30.05;;;14.85;;
50066;SDS011;35952;52.524;13.340;2023-03-03T09:12:59;32.45;;;16.25;;
50066;SDS011;35952;52.524;13.340;2023-03-03T09:15:31;23.95;;;13.65;;
50066;SDS011;35952;52.524;13.340;2023-03-03T09:17:59;24.67;;;12.85;;
50066;SDS011;35952;52.524;13.340;2023-03-03T09:20:36;27.92;;;15.50;;
50066;SDS011;35952;52.524;13.340;2023-03-03T09:28:53;35.67;;;17.70;;
50066;SDS011;35952;52.524;13.340;2023-03-03T09:31:37;32.53;;;18.00;;
50066;SDS011;35952;52.524;13.340;2023-03-03T09:36:52;29.38;;;13.85;;
50066;SDS011;35952;52.524;13.340;2023-03-03T09:39:20;27.23;;;14.88;;
50066;SDS011;35952;52.524;13.340;2023-03-03T09:52:01;34.83;;;18.83;;
50066;SDS011;35952;52.524;13.340;2023-03-03T09:54:49;34.80;;;20.08;;
50066;SDS011;35952;52.524;13.340;2023-03-03T09:57:33;33.42;;;19.52;;
50066;SDS011;35952;52.524;13.340;2023-03-03T10:00:08;38.90;;;19.70;;
50066;SDS011;35952;52.524;13.340;2023-03-03T10:02:45;40.03;;;22.80;;
50066;SDS011;35952;52.524;13.340;2023-03-03T10:05:20;35.60;;;20.63;;
50066;SDS011;35952;52.524;13.340;2023-03-03T10:08:39;41.70;;;23.48;;
50066;SDS011;35952;52.524;13.340;2023-03-03T10:11:01;43.17;;;22.73;;
50066;SDS011;35952;52.524;13.340;2023-03-03T10:21:35;21.98;;;12.20;;
50066;SDS011;35952;52.524;13.340;2023-03-03T10:24:26;32.50;;;19.13;;
50066;SDS011;35952;52.524;13.340;2023-03-03T10:32:45;26.80;;;14.88;;
50066;SDS011;35952;52.524;13.340;2023-03-03T10:35:23;29.65;;;14.85;;
50066;SDS011;35952;52.524;13.340;2023-03-03T10:38:19;31.13;;;17.20;;
50066;SDS011;35952;52.524;13.340;2023-03-03T10:40:53;24.70;;;14.40;;
50066;SDS011;35952;52.524;13.340;2023-03-03T10:43:57;21.30;;;13.93;;
50066;SDS011;35952;52.524;13.340;2023-03-03T10:52:16;25.17;;;12.65;;
50066;SDS011;35952;52.524;13.340;2023-03-03T10:55:12;30.30;;;14.85;;
50066;SDS011;35952;52.524;13.340;2023-03-03T10:58:15;30.90;;;16.10;;
50066;SDS011;35952;52.524;13.340;2023-03-03T11:11:15;31.58;;;16.75;;
50066;SDS011;35952;52.524;13.340;2023-03-03T11:14:16;29.73;;;16.02;;
50066;SDS011;35952;52.524;13.340;2023-03-03T11:17:12;38.13;;;19.00;;
50066;SDS011;35952;52.524;13.340;2023-03-03T11:20:24;34.92;;;18.50;;
50066;SDS011;35952;52.524;13.340;2023-03-03T11:22:30;38.10;;;21.58;;
50066;SDS011;35952;52.524;13.340;2023-03-03T11:25:13;35.22;;;17.88;;
50066;SDS011;35952;52.524;13.340;2023-03-03T11:36:30;35.10;;;19.23;;
50066;SDS011;35952;52.524;13.340;2023-03-03T11:39:17;32.47;;;17.30;;
50066;SDS011;35952;52.524;13.340;2023-03-03T11:41:56;39.97;;;20.45;;
50066;SDS011;35952;52.524;13.340;2023-03-03T11:44:42;39.60;;;22.33;;
50066;SDS011;35952;52.524;13.340;2023-03-03T11:49:47;43.72;;;24.73;;
50066;SDS011;35952;52.524;13.340;2023-03-03T11:52:31;41.75;;;23.85;;
50066;SDS011;35952;52.524;13.340;2023-03-03T11:55:09;40.20;;;22.83;;
50066;SDS011;35952;52.524;13.340;2023-03-03T11:57:40;44.47;;;24.03;;
50066;SDS011;35952;52.524;13.340;2023-03-03T12:06:11;44.30;;;22.30;;
50066;SDS011;35952;52.524;13.340;2023-03-03T12:22:19;32.10;;;18.75;;
50066;SDS011;35952;52.524;13.340;2023-03-03T12:33:22;37.97;;;20.90;;
50066;SDS011;35952;52.524;13.340;2023-03-03T12:36:57;48.97;;;22.38;;
50066;SDS011;35952;52.524;13.340;2023-03-03T12:42:10;47.40;;;23.75;;
50066;SDS011;35952;52.524;13.340;2023-03-03T12:44:59;39.90;;;23.33;;
50066;SDS011;35952;52.524;13.340;2023-03-03T12:47:59;44.70;;;21.13;;
50066;SDS011;35952;52.524;13.340;2023-03-03T12:50:35;32.17;;;19.15;;
50066;SDS011;35952;52.524;13.340;2023-03-03T12:53:24;32.03;;;17.95;;
50066;SDS011;35952;52.524;13.340;2023-03-03T12:56:06;30.80;;;17.67;;
50066;SDS011;35952;52.524;13.340;2023-03-03T13:04:10;34.80;;;19.87;;
50066;SDS011;35952;52.524;13.340;2023-03-03T13:07:05;32.83;;;18.50;;
50066;SDS011;35952;52.524;13.340;2023-03-03T13:09:49;29.05;;;17.40;;
50066;SDS011;35952;52.524;13.340;2023-03-03T13:12:55;28.67;;;17.33;;
50066;SDS011;35952;52.524;13.340;2023-03-03T13:15:33;28.20;;;15.90;;
50066;SDS011;35952;52.524;13.340;2023-03-03T13:18:18;29.35;;;17.58;;
50066;SDS011;35952;52.524;13.340;2023-03-03T13:23:57;26.50;;;16.33;;
50066;SDS011;35952;52.524;13.340;2023-03-03T13:32:19;24.60;;;15.30;;
50066;SDS011;35952;52.524;13.340;2023-03-03T13:34:55;28.90;;;15.30;;
50066;SDS011;35952;52.524;13.340;2023-03-03T13:37:44;24.87;;;14.60;;
50066;SDS011;35952;52.524;13.340;2023-03-03T13:40:21;27.23;;;14.98;;
50066;SDS011;35952;52.524;13.340;2023-03-03T13:51:02;36.93;;;21.20;;
50066;SDS011;35952;52.524;13.340;2023-03-03T13:53:54;32.25;;;18.90;;
50066;SDS011;35952;52.524;13.340;2023-03-03T13:59:44;42.13;;;24.00;;
50066;SDS011;35952;52.524;13.340;2023-03-03T14:02:37;36.13;;;21.53;;
50066;SDS011;35952;52.524;13.340;2023-03-03T14:05:21;26.80;;;18.30;;
50066;SDS011;35952;52.524;13.340;2023-03-03T14:08:02;38.77;;;18.57;;
50066;SDS011;35952;52.524;13.340;2023-03-03T14:13:57;24.43;;;15.90;;
50066;SDS011;35952;52.524;13.340;2023-03-03T14:19:29;32.00;;;18.70;;
50066;SDS011;35952;52.524;13.340;2023-03-03T14:24:53;31.90;;;15.20;;
50066;SDS011;35952;52.524;13.340;2023-03-03T14:27:25;26.00;;;16.47;;
50066;SDS011;35952;52.524;13.340;2023-03-03T14:29:52;30.30;;;16.73;;
50066;SDS011;35952;52.524;13.340;2023-03-03T14:32:25;24.77;;;16.30;;
50066;SDS011;35952;52.524;13.340;2023-03-03T14:34:58;27.90;;;17.40;;
50066;SDS011;35952;52.524;13.340;2023-03-03T14:37:43;28.47;;;16.70;;
50066;SDS011;35952;52.524;13.340;2023-03-03T14:45:28;23.00;;;15.80;;
50066;SDS011;35952;52.524;13.340;2023-03-03T14:47:55;26.27;;;13.87;;
50066;SDS011;35952;52.524;13.340;2023-03-03T14:50:28;27.23;;;15.87;;
50066;SDS011;35952;52.524;13.340;2023-03-03T14:53:06;27.63;;;18.03;;
50066;SDS011;35952;52.524;13.340;2023-03-03T14:55:40;28.90;;;16.90;;
50066;SDS011;35952;52.524;13.340;2023-03-03T14:58:08;33.50;;;19.63;;
50066;SDS011;35952;52.524;13.340;2023-03-03T15:01:07;28.60;;;18.17;;
50066;SDS011;35952;52.524;13.340;2023-03-03T15:03:43;23.77;;;17.03;;
50066;SDS011;35952;52.524;13.340;2023-03-03T15:06:33;22.50;;;14.23;;
50066;SDS011;35952;52.524;13.340;2023-03-03T15:09:40;23.30;;;14.93;;
50066;SDS011;35952;52.524;13.340;2023-03-03T15:17:38;24.40;;;14.93;;
50066;SDS011;35952;52.524;13.340;2023-03-03T15:47:54;21.73;;;14.13;;
50066;SDS011;35952;52.524;13.340;2023-03-03T15:59:25;19.90;;;13.90;;
50066;SDS011;35952;52.524;13.340;2023-03-03T16:02:16;18.93;;;12.80;;
50066;SDS011;35952;52.524;13.340;2023-03-03T16:05:19;22.17;;;14.87;;
50066;SDS011;35952;52.524;13.340;2023-03-03T16:07:57;23.93;;;14.57;;
50066;SDS011;35952;52.524;13.340;2023-03-03T16:16:42;20.73;;;13.13;;
50066;SDS011;35952;52.524;13.340;2023-03-03T16:22:10;22.70;;;14.00;;
50066;SDS011;35952;52.524;13.340;2023-03-03T16:25:13;25.73;;;12.40;;
50066;SDS011;35952;52.524;13.340;2023-03-03T16:27:49;24.40;;;14.00;;
50066;SDS011;35952;52.524;13.340;2023-03-03T16:30:27;25.07;;;13.40;;
50066;SDS011;35952;52.524;13.340;2023-03-03T16:36:36;23.50;;;13.70;;
50066;SDS011;35952;52.524;13.340;2023-03-03T16:39:30;21.83;;;13.13;;
50066;SDS011;35952;52.524;13.340;2023-03-03T16:42:28;23.90;;;14.37;;
50066;SDS011;35952;52.524;13.340;2023-03-03T16:53:08;24.47;;;15.30;;
50066;SDS011;35952;52.524;13.340;2023-03-03T17:01:32;25.73;;;14.80;;
50066;SDS011;35952;52.524;13.340;2023-03-03T17:04:30;23.97;;;14.97;;
50066;SDS011;35952;52.524;13.340;2023-03-03T17:24:19;23.17;;;15.83;;
50066;SDS011;35952;52.524;13.340;2023-03-03T17:30:02;23.10;;;15.07;;
50066;SDS011;35952;52.524;13.340;2023-03-03T17:43:13;23.73;;;15.43;;
50066;SDS011;35952;52.524;13.340;2023-03-03T17:45:59;22.60;;;15.07;;
50066;SDS011;35952;52.524;13.340;2023-03-03T17:54:06;24.40;;;15.57;;
50066;SDS011;35952;52.524;13.340;2023-03-03T17:56:47;26.30;;;14.80;;
50066;SDS011;35952;52.524;13.340;2023-03-03T18:05:14;22.70;;;14.37;;
50066;SDS011;35952;52.524;13.340;2023-03-03T18:13:38;22.97;;;15.70;;
50066;SDS011;35952;52.524;13.340;2023-03-03T18:22:43;20.73;;;13.60;;
50066;SDS011;35952;52.524;13.340;2023-03-03T18:25:12;25.50;;;15.40;;
50066;SDS011;35952;52.524;13.340;2023-03-03T18:30:56;30.90;;;16.73;;
50066;SDS011;35952;52.524;13.340;2023-03-03T18:33:31;36.03;;;18.10;;
50066;SDS011;35952;52.524;13.340;2023-03-03T18:36:14;28.63;;;15.90;;
50066;SDS011;35952;52.524;13.340;2023-03-03T18:39:03;28.60;;;15.77;;
50066;SDS011;35952;52.524;13.340;2023-03-03T18:41:31;22.33;;;16.00;;
50066;SDS011;35952;52.524;13.340;2023-03-03T18:44:29;25.20;;;16.30;;
50066;SDS011;35952;52.524;13.340;2023-03-03T18:46:55;27.13;;;15.37;;
50066;SDS011;35952;52.524;13.340;2023-03-03T18:52:26;25.80;;;17.27;;
50066;SDS011;35952;52.524;13.340;2023-03-03T18:55:39;23.80;;;16.03;;
50066;SDS011;35952;52.524;13.340;2023-03-03T18:57:39;25.73;;;16.40;;
50066;SDS011;35952;52.524;13.340;2023-03-03T19:00:26;26.40;;;15.70;;
50066;SDS011;35952;52.524;13.340;2023-03-03T19:02:54;29.63;;;17.47;;
50066;SDS011;35952;52.524;13.340;2023-03-03T19:05:23;29.70;;;18.80;;
50066;SDS011;35952;52.524;13.340;2023-03-03T19:08:03;23.40;;;15.07;;
50066;SDS011;35952;52.524;13.340;2023-03-03T19:10:48;27.57;;;18.37;;
50066;SDS011;35952;52.524;13.340;2023-03-03T19:21:20;25.90;;;17.10;;
50066;SDS011;35952;52.524;13.340;2023-03-03T19:32:20;26.33;;;16.30;;
50066;SDS011;35952;52.524;13.340;2023-03-03T19:43:50;22.57;;;16.00;;
50066;SDS011;35952;52.524;13.340;2023-03-03T19:52:20;26.67;;;15.60;;
50066;SDS011;35952;52.524;13.340;2023-03-03T19:57:40;26.07;;;17.17;;
50066;SDS011;35952;52.524;13.340;2023-03-03T20:00:37;28.00;;;15.10;;
50066;SDS011;35952;52.524;13.340;2023-03-03T20:05:51;25.10;;;17.13;;
50066;SDS011;35952;52.524;13.340;2023-03-03T20:08:33;25.47;;;16.20;;
50066;SDS011;35952;52.524;13.340;2023-03-03T20:22:32;21.80;;;14.40;;